createdAt,value
2023-01-21T00:01:05.816Z,0.10
2023-01-21T00:03:53.299Z,0.10
2023-01-21T00:06:40.791Z,0.10
2023-01-21T00:09:28.324Z,0.10
2023-01-21T00:12:15.896Z,0.10
2023-01-21T00:15:03.563Z,0.20
2023-01-21T00:17:53.991Z,0.20
2023-01-21T00:20:41.639Z,0.20
2023-01-21T00:23:29.276Z,0.20
2023-01-21T00:26:16.710Z,0.20
2023-01-21T00:29:05.053Z,0.10
2023-01-21T00:31:52.659Z,0.10
2023-01-21T00:34:40.179Z,0.10
2023-01-21T00:37:27.607Z,0.20
2023-01-21T00:40:15.791Z,0.10
2023-01-21T00:43:03.479Z,0.20
2023-01-21T00:45:50.980Z,0.20
2023-01-21T00:48:38.686Z,0.20
2023-01-21T00:51:26.984Z,0.20
2023-01-21T00:54:14.392Z,0.20
2023-01-21T00:57:01.903Z,0.20
2023-01-21T00:59:49.963Z,0.10
2023-01-21T01:02:37.562Z,0.10
2023-01-21T01:05:25.049Z,0.10
2023-01-21T01:08:12.553Z,0.10
2023-01-21T01:11:00.898Z,0.20
2023-01-21T01:13:48.455Z,0.20
2023-01-21T01:16:35.911Z,0.20
2023-01-21T01:19:23.425Z,0.20
2023-01-21T01:22:10.839Z,0.10
2023-01-21T01:24:58.348Z,0.10
2023-01-21T01:27:45.775Z,0.10
2023-01-21T01:30:36.083Z,0.10
2023-01-21T01:33:24.643Z,0.20
2023-01-21T01:36:25.151Z,0.20
2023-01-21T01:39:12.634Z,0.20
2023-01-21T01:42:00.330Z,0.20
2023-01-21T01:45:05.381Z,0.20
2023-01-21T01:48:01.142Z,0.20
2023-01-21T01:50:49.624Z,0.20
2023-01-21T01:53:44.474Z,0.20
2023-01-21T01:56:32.163Z,0.30
2023-01-21T01:59:21.088Z,0.30
2023-01-21T02:02:15.100Z,0.30
2023-01-21T02:05:10.857Z,0.20
2023-01-21T02:07:58.642Z,0.30
2023-01-21T02:10:46.201Z,0.30
2023-01-21T02:13:33.712Z,0.30
2023-01-21T02:16:52.108Z,0.20
2023-01-21T02:20:03.403Z,0.20
2023-01-21T02:23:19.860Z,0.20
2023-01-21T02:26:47.384Z,0.20
2023-01-21T02:30:21.665Z,0.20
2023-01-21T02:33:34.093Z,0.30
2023-01-21T02:36:56.797Z,0.20
2023-01-21T02:40:01.112Z,0.20
2023-01-21T02:43:06.564Z,0.20
2023-01-21T02:46:13.379Z,0.20
2023-01-21T02:49:44.719Z,0.20
2023-01-21T02:52:32.303Z,0.20
2023-01-21T02:55:20.074Z,0.20
2023-01-21T02:58:16.458Z,0.20
2023-01-21T03:01:25.058Z,0.30
2023-01-21T03:04:27.558Z,0.30
2023-01-21T03:07:40.361Z,0.20
2023-01-21T03:11:03.920Z,0.20
2023-01-21T03:14:35.885Z,0.20
2023-01-21T03:18:00.231Z,0.20
2023-01-21T03:20:58.597Z,0.20
2023-01-21T03:23:51.657Z,0.20
2023-01-21T03:26:48.073Z,0.20
2023-01-21T03:29:39.162Z,0.20
2023-01-21T03:32:30.559Z,0.20
2023-01-21T03:35:34.671Z,0.20
2023-01-21T03:38:31.697Z,0.10
2023-01-21T03:41:33.619Z,0.10
2023-01-21T03:44:21.735Z,0.10
2023-01-21T03:47:28.887Z,0.10
2023-01-21T03:50:38.065Z,0.00
2023-01-21T03:53:26.161Z,0.00
2023-01-21T03:56:13.588Z,0.00
2023-01-21T03:59:01.108Z,0.00
2023-01-21T04:01:48.668Z,-0.10
2023-01-21T04:04:36.278Z,-0.10
2023-01-21T04:07:24.103Z,-0.10
2023-01-21T04:10:12.035Z,-0.10
2023-01-21T04:12:59.520Z,-0.10
2023-01-21T04:15:47.174Z,-0.10
2023-01-21T04:18:34.656Z,-0.10
2023-01-21T04:21:22.234Z,-0.10
2023-01-21T04:24:09.887Z,-0.10
2023-01-21T04:26:57.374Z,-0.10
2023-01-21T04:29:44.903Z,0.00
2023-01-21T04:32:33.581Z,-0.10
2023-01-21T04:35:21.056Z,0.00
2023-01-21T04:38:08.760Z,0.00
2023-01-21T04:40:56.446Z,-0.10
2023-01-21T04:43:44.032Z,0.00
2023-01-21T04:46:31.491Z,0.00
2023-01-21T04:49:19.077Z,0.00
2023-01-21T04:52:06.640Z,0.00
2023-01-21T04:54:54.172Z,0.00
2023-01-21T04:57:41.704Z,0.00
2023-01-21T05:00:29.214Z,0.00
2023-01-21T05:03:16.746Z,0.00
2023-01-21T05:06:04.510Z,0.00
2023-01-21T05:08:52.014Z,0.00
2023-01-21T05:11:39.527Z,0.10
2023-01-21T05:14:26.963Z,0.10
2023-01-21T05:17:14.536Z,0.10
2023-01-21T05:20:02.266Z,0.00
2023-01-21T05:22:49.866Z,0.10
2023-01-21T05:25:37.354Z,0.10
2023-01-21T05:28:25.201Z,0.10
2023-01-21T05:31:12.758Z,0.00
2023-01-21T05:34:00.380Z,0.10
2023-01-21T05:36:47.858Z,0.00
2023-01-21T05:39:35.409Z,0.00
2023-01-21T05:42:23.127Z,0.00
2023-01-21T05:45:12.893Z,0.00
2023-01-21T05:48:00.426Z,0.00
2023-01-21T05:50:49.188Z,0.00
2023-01-21T05:53:37.264Z,0.00
2023-01-21T05:56:24.805Z,0.00
2023-01-21T05:59:12.390Z,0.00
2023-01-21T06:01:59.940Z,-0.10
2023-01-21T06:04:47.380Z,0.00
2023-01-21T06:07:34.891Z,-0.10
2023-01-21T06:10:22.938Z,-0.10
2023-01-21T06:13:16.169Z,-0.10
2023-01-21T06:16:04.043Z,-0.10
2023-01-21T06:18:51.547Z,-0.10
2023-01-21T06:21:39.420Z,-0.10
2023-01-21T06:24:26.897Z,-0.10
2023-01-21T06:27:14.491Z,-0.10
2023-01-21T06:30:01.968Z,-0.10
2023-01-21T06:32:49.817Z,-0.10
2023-01-21T06:35:37.315Z,-0.10
2023-01-21T06:38:24.885Z,-0.10
2023-01-21T06:41:12.489Z,-0.10
2023-01-21T06:44:00.000Z,-0.10
2023-01-21T06:47:00.088Z,-0.10
2023-01-21T06:49:48.484Z,-0.10
2023-01-21T06:52:36.184Z,-0.10
2023-01-21T06:55:23.677Z,-0.10
2023-01-21T06:58:11.496Z,-0.10
2023-01-21T07:00:59.119Z,-0.10
2023-01-21T07:03:46.679Z,-0.10
2023-01-21T07:06:34.169Z,-0.10
2023-01-21T07:09:21.814Z,-0.10
2023-01-21T07:12:09.785Z,-0.10
2023-01-21T07:14:57.341Z,-0.10
2023-01-21T07:17:45.056Z,-0.10
2023-01-21T07:20:32.716Z,-0.10
2023-01-21T07:23:20.212Z,-0.10
2023-01-21T07:26:08.418Z,-0.10
2023-01-21T07:28:56.062Z,-0.10
2023-01-21T07:31:43.749Z,-0.10
2023-01-21T07:34:31.324Z,-0.10
2023-01-21T07:37:18.951Z,0.00
2023-01-21T07:40:07.708Z,0.00
2023-01-21T07:42:56.460Z,0.00
2023-01-21T07:45:44.596Z,0.10
2023-01-21T07:48:32.135Z,0.00
2023-01-21T07:51:21.678Z,0.10
2023-01-21T07:54:11.229Z,0.10
2023-01-21T07:56:59.124Z,0.10
2023-01-21T07:59:46.630Z,0.10
2023-01-21T08:02:34.285Z,0.20
2023-01-21T08:05:23.795Z,0.20
2023-01-21T08:08:11.259Z,0.20
2023-01-21T08:10:58.850Z,0.20
2023-01-21T08:13:46.341Z,0.30
2023-01-21T08:16:33.920Z,0.30
2023-01-21T08:19:21.469Z,0.30
2023-01-21T08:22:09.086Z,0.30
2023-01-21T08:24:56.642Z,0.30
2023-01-21T08:27:44.394Z,0.30
2023-01-21T08:30:32.290Z,0.40
2023-01-21T08:33:20.189Z,0.40
2023-01-21T08:36:09.450Z,0.40
2023-01-21T08:39:05.969Z,0.40
2023-01-21T08:41:53.500Z,0.40
2023-01-21T08:44:41.050Z,0.40
2023-01-21T08:47:28.618Z,0.40
2023-01-21T08:50:16.829Z,0.40
2023-01-21T08:53:04.304Z,0.50
2023-01-21T08:55:51.839Z,0.50
2023-01-21T08:58:39.379Z,0.50
2023-01-21T09:01:27.414Z,0.60
2023-01-21T09:04:14.936Z,0.50
2023-01-21T09:07:02.556Z,0.50
2023-01-21T09:09:50.139Z,0.50
2023-01-21T09:12:38.489Z,0.50
2023-01-21T09:15:25.990Z,0.50
2023-01-21T09:18:13.589Z,0.50
2023-01-21T09:21:07.352Z,0.50
2023-01-21T09:23:55.140Z,0.50
2023-01-21T09:26:44.222Z,0.50
2023-01-21T09:29:31.745Z,0.60
2023-01-21T09:32:19.269Z,0.60
2023-01-21T09:35:07.342Z,0.70
2023-01-21T09:37:54.789Z,0.60
2023-01-21T09:40:46.277Z,0.80
2023-01-21T09:43:49.759Z,0.70
2023-01-21T09:47:09.875Z,0.70
2023-01-21T09:50:10.557Z,0.80
2023-01-21T09:53:19.393Z,0.80
2023-01-21T09:56:22.284Z,0.90
2023-01-21T09:59:41.360Z,0.90
2023-01-21T10:02:53.115Z,1.00
2023-01-21T10:05:52.677Z,1.00
2023-01-21T10:08:58.740Z,1.00
2023-01-21T10:12:10.060Z,1.10
2023-01-21T10:15:43.477Z,1.10
2023-01-21T10:18:37.737Z,1.20
2023-01-21T10:21:48.701Z,1.30
2023-01-21T10:24:46.349Z,1.30
2023-01-21T10:27:38.119Z,1.40
2023-01-21T10:30:44.636Z,1.40
2023-01-21T10:33:34.238Z,1.50
2023-01-21T10:37:03.850Z,1.60
2023-01-21T10:40:17.433Z,1.70
2023-01-21T10:43:18.710Z,1.70
2023-01-21T10:46:22.959Z,1.70
2023-01-21T10:49:35.218Z,1.70
2023-01-21T10:52:51.867Z,1.70
2023-01-21T10:56:06.234Z,1.60
2023-01-21T10:59:06.264Z,1.50
2023-01-21T11:02:31.555Z,1.30
2023-01-21T11:05:20.974Z,1.20
2023-01-21T11:08:26.263Z,1.20
2023-01-21T11:11:18.549Z,1.20
2023-01-21T11:14:06.280Z,1.20
2023-01-21T11:16:55.062Z,1.30
2023-01-21T11:19:42.640Z,1.40
2023-01-21T11:22:32.973Z,1.50
2023-01-21T11:26:01.514Z,1.50
2023-01-21T11:28:49.128Z,1.50
2023-01-21T11:31:37.948Z,1.50
2023-01-21T11:34:25.632Z,1.40
2023-01-21T11:37:27.002Z,1.40
2023-01-21T11:40:26.743Z,1.30
2023-01-21T11:43:52.974Z,1.20
2023-01-21T11:46:41.794Z,1.20
2023-01-21T11:49:33.099Z,1.20
2023-01-21T11:52:21.591Z,1.10
2023-01-21T11:55:23.084Z,1.10
2023-01-21T11:58:33.837Z,1.20
2023-01-21T12:01:22.877Z,1.20
2023-01-21T12:04:15.917Z,1.20
2023-01-21T12:07:05.604Z,1.20
2023-01-21T12:10:19.830Z,1.30
2023-01-21T12:13:58.445Z,1.30
2023-01-21T12:17:35.198Z,1.30
2023-01-21T12:20:40.493Z,1.20
2023-01-21T12:23:34.009Z,1.10
2023-01-21T12:26:47.868Z,1.10
2023-01-21T12:29:53.759Z,1.10
2023-01-21T12:32:51.386Z,1.00
2023-01-21T12:36:12.854Z,1.00
2023-01-21T12:39:18.208Z,0.90
2023-01-21T12:42:16.313Z,0.80
2023-01-21T12:45:19.551Z,0.80
2023-01-21T12:48:29.534Z,0.90
2023-01-21T12:51:36.549Z,0.90
2023-01-21T12:54:35.548Z,0.90
2023-01-21T12:57:56.050Z,0.80
2023-01-21T13:00:49.527Z,0.80
2023-01-21T13:04:18.847Z,0.70
2023-01-21T13:07:37.270Z,0.70
2023-01-21T13:10:38.376Z,0.80
2023-01-21T13:13:54.657Z,0.80
2023-01-21T13:16:51.779Z,0.70
2023-01-21T13:19:39.404Z,0.70
2023-01-21T13:22:45.956Z,0.70
2023-01-21T13:25:46.582Z,0.60
2023-01-21T13:29:09.296Z,0.60
2023-01-21T13:32:51.975Z,0.70
2023-01-21T13:36:06.005Z,0.70
2023-01-21T13:39:34.379Z,0.70
2023-01-21T13:42:41.581Z,0.70
2023-01-21T13:45:47.540Z,0.80
2023-01-21T13:49:01.781Z,0.70
2023-01-21T13:52:09.399Z,0.70
2023-01-21T13:55:33.774Z,0.70
2023-01-21T13:59:04.496Z,0.70
2023-01-21T14:02:03.929Z,0.70
2023-01-21T14:05:30.718Z,0.70
2023-01-21T14:08:47.777Z,0.70
2023-01-21T14:11:51.214Z,0.70
2023-01-21T14:15:12.518Z,0.70
2023-01-21T14:18:45.493Z,0.70
2023-01-21T14:22:02.808Z,0.70
2023-01-21T14:25:17.314Z,0.60
2023-01-21T14:28:34.888Z,0.60
2023-01-21T14:31:35.866Z,0.50
2023-01-21T14:34:48.224Z,0.50
2023-01-21T14:37:48.584Z,0.50
2023-01-21T14:40:46.023Z,0.40
2023-01-21T14:43:33.488Z,0.40
2023-01-21T14:46:34.310Z,0.40
2023-01-21T14:49:46.074Z,0.30
2023-01-21T14:52:46.948Z,0.30
2023-01-21T14:55:34.528Z,0.30
2023-01-21T14:58:27.923Z,0.30
2023-01-21T15:01:39.475Z,0.30
2023-01-21T15:04:40.508Z,0.30
2023-01-21T15:07:43.495Z,0.30
2023-01-21T15:10:40.491Z,0.30
2023-01-21T15:13:36.681Z,0.20
2023-01-21T15:16:43.687Z,0.30
2023-01-21T15:19:35.271Z,0.20
2023-01-21T15:22:41.080Z,0.20
2023-01-21T15:25:33.336Z,0.20
2023-01-21T15:28:40.404Z,0.20
2023-01-21T15:31:42.893Z,0.20
2023-01-21T15:34:35.058Z,0.20
2023-01-21T15:37:25.625Z,0.20
2023-01-21T15:40:29.591Z,0.10
2023-01-21T15:43:38.480Z,0.10
2023-01-21T15:46:59.591Z,0.10
2023-01-21T15:50:09.534Z,0.10
2023-01-21T15:53:10.955Z,0.00
2023-01-21T15:56:45.443Z,0.00
2023-01-21T16:00:10.939Z,0.10
2023-01-21T16:03:06.211Z,0.00
2023-01-21T16:06:40.028Z,0.10
2023-01-21T16:09:38.659Z,0.10
2023-01-21T16:12:43.989Z,0.10
2023-01-21T16:16:17.239Z,0.00
2023-01-21T16:19:28.620Z,0.00
2023-01-21T16:22:24.746Z,0.00
2023-01-21T16:25:21.791Z,0.00
2023-01-21T16:28:09.323Z,0.00
2023-01-21T16:31:01.819Z,0.00
2023-01-21T16:33:50.444Z,0.00
2023-01-21T16:36:40.191Z,0.00
2023-01-21T16:39:27.801Z,0.00
2023-01-21T16:42:36.903Z,0.00
2023-01-21T16:45:26.130Z,0.00
2023-01-21T16:48:24.475Z,0.00
2023-01-21T16:51:23.822Z,0.00
2023-01-21T16:54:23.501Z,0.00
2023-01-21T16:57:16.800Z,0.00
2023-01-21T17:00:30.315Z,0.00
2023-01-21T17:03:23.135Z,0.00
2023-01-21T17:06:29.437Z,0.00
2023-01-21T17:09:27.214Z,0.00
2023-01-21T17:12:26.009Z,0.00
2023-01-21T17:15:44.536Z,0.00
2023-01-21T17:18:51.129Z,0.00
2023-01-21T17:21:47.164Z,0.00
2023-01-21T17:24:44.188Z,-0.10
2023-01-21T17:27:33.426Z,0.00
2023-01-21T17:30:34.078Z,-0.10
2023-01-21T17:33:30.728Z,-0.10
2023-01-21T17:36:35.740Z,-0.10
2023-01-21T17:39:50.721Z,-0.10
2023-01-21T17:42:40.745Z,-0.10
2023-01-21T17:45:35.686Z,-0.10
2023-01-21T17:48:45.668Z,-0.10
2023-01-21T17:51:35.025Z,-0.20
2023-01-21T17:54:27.360Z,-0.20
2023-01-21T17:57:35.097Z,-0.20
2023-01-21T18:00:43.604Z,-0.20
2023-01-21T18:03:31.120Z,-0.20
2023-01-21T18:06:24.973Z,-0.20
2023-01-21T18:09:19.653Z,-0.20
2023-01-21T18:12:11.009Z,-0.20
2023-01-21T18:14:58.929Z,-0.20
2023-01-21T18:18:00.214Z,-0.20
2023-01-21T18:20:48.229Z,-0.20
2023-01-21T18:23:35.741Z,-0.20
2023-01-21T18:26:32.279Z,-0.30
2023-01-21T18:29:21.853Z,-0.30
2023-01-21T18:32:15.428Z,-0.30
2023-01-21T18:35:03.035Z,-0.30
2023-01-21T18:37:50.524Z,-0.30
2023-01-21T18:40:38.189Z,-0.30
2023-01-21T18:43:26.470Z,-0.40
2023-01-21T18:46:14.697Z,-0.30
2023-01-21T18:49:05.900Z,-0.40
2023-01-21T18:51:53.398Z,-0.40
2023-01-21T18:54:41.538Z,-0.40
2023-01-21T18:57:29.124Z,-0.40
2023-01-21T19:00:32.450Z,-0.40
2023-01-21T19:03:20.295Z,-0.40
2023-01-21T19:06:16.134Z,-0.40
2023-01-21T19:09:04.540Z,-0.40
2023-01-21T19:11:52.686Z,-0.40
2023-01-21T19:14:41.058Z,-0.40
2023-01-21T19:17:33.556Z,-0.40
2023-01-21T19:20:28.202Z,-0.40
2023-01-21T19:23:18.184Z,-0.40
2023-01-21T19:26:07.070Z,-0.40
2023-01-21T19:28:54.608Z,-0.40
2023-01-21T19:31:42.449Z,-0.40
2023-01-21T19:34:30.172Z,-0.40
2023-01-21T19:37:22.874Z,-0.40
2023-01-21T19:40:26.183Z,-0.40
2023-01-21T19:43:17.001Z,-0.40
2023-01-21T19:46:13.165Z,-0.40
2023-01-21T19:49:10.521Z,-0.50
2023-01-21T19:51:58.074Z,-0.50
2023-01-21T19:54:45.563Z,-0.40
2023-01-21T19:57:34.115Z,-0.50
2023-01-21T20:00:26.613Z,-0.50
2023-01-21T20:03:15.171Z,-0.50
2023-01-21T20:06:05.548Z,-0.50
2023-01-21T20:08:53.584Z,-0.50
2023-01-21T20:11:41.479Z,-0.50
2023-01-21T20:14:29.025Z,-0.60
2023-01-21T20:17:16.831Z,-0.50
2023-01-21T20:20:32.726Z,-0.50
2023-01-21T20:23:22.731Z,-0.50
2023-01-21T20:26:19.978Z,-0.50
2023-01-21T20:29:14.100Z,-0.50
2023-01-21T20:32:01.794Z,-0.50
2023-01-21T20:34:49.317Z,-0.50
2023-01-21T20:37:37.349Z,-0.50
2023-01-21T20:40:30.524Z,-0.50
2023-01-21T20:43:20.133Z,-0.50
2023-01-21T20:46:28.436Z,-0.50
2023-01-21T20:49:15.997Z,-0.50
2023-01-21T20:52:03.706Z,-0.50
2023-01-21T20:54:51.212Z,-0.50
2023-01-21T20:57:39.125Z,-0.50
2023-01-21T21:00:32.431Z,-0.50
2023-01-21T21:03:20.456Z,-0.50
2023-01-21T21:06:37.265Z,-0.50
2023-01-21T21:09:24.847Z,-0.50
2023-01-21T21:12:12.371Z,-0.40
2023-01-21T21:14:59.906Z,-0.50
2023-01-21T21:17:47.881Z,-0.40
2023-01-21T21:20:39.570Z,-0.50
2023-01-21T21:23:27.134Z,-0.50
2023-01-21T21:26:25.194Z,-0.50
2023-01-21T21:29:16.078Z,-0.50
2023-01-21T21:32:06.964Z,-0.50
2023-01-21T21:34:55.252Z,-0.50
2023-01-21T21:37:43.731Z,-0.50
2023-01-21T21:40:31.515Z,-0.50
2023-01-21T21:43:35.909Z,-0.40
2023-01-21T21:46:42.663Z,-0.40
2023-01-21T21:49:30.680Z,-0.40
2023-01-21T21:52:18.164Z,-0.40
2023-01-21T21:55:06.447Z,-0.40
2023-01-21T21:57:54.048Z,-0.40
2023-01-21T22:00:41.535Z,-0.40
2023-01-21T22:03:29.071Z,-0.30
2023-01-21T22:06:22.504Z,-0.30
2023-01-21T22:09:10.769Z,-0.20
2023-01-21T22:11:58.265Z,-0.20
2023-01-21T22:14:45.714Z,-0.20
2023-01-21T22:17:34.063Z,-0.20
2023-01-21T22:20:21.597Z,-0.20
2023-01-21T22:23:09.109Z,-0.20
2023-01-21T22:25:57.822Z,-0.20
2023-01-21T22:28:46.560Z,-0.20
2023-01-21T22:31:34.633Z,-0.20
2023-01-21T22:34:22.314Z,-0.20
2023-01-21T22:37:10.396Z,-0.20
2023-01-21T22:39:57.845Z,-0.20
2023-01-21T22:42:45.378Z,-0.20
2023-01-21T22:45:33.202Z,-0.20
2023-01-21T22:48:20.789Z,-0.30
2023-01-21T22:51:13.767Z,-0.30
2023-01-21T22:54:02.247Z,-0.30
2023-01-21T22:56:52.533Z,-0.30
2023-01-21T22:59:40.635Z,-0.30
2023-01-21T23:02:28.269Z,-0.40
2023-01-21T23:05:16.387Z,-0.30
2023-01-21T23:08:04.482Z,-0.30
2023-01-21T23:11:02.110Z,-0.40
2023-01-21T23:13:50.275Z,-0.40
2023-01-21T23:16:39.722Z,-0.30
2023-01-21T23:19:27.275Z,-0.30
2023-01-21T23:22:14.893Z,-0.30
2023-01-21T23:25:02.479Z,-0.40
2023-01-21T23:27:50.331Z,-0.40
2023-01-21T23:30:38.220Z,-0.40
2023-01-21T23:33:25.784Z,-0.40
2023-01-21T23:36:13.780Z,-0.50
2023-01-21T23:39:01.497Z,-0.50
2023-01-21T23:41:48.978Z,-0.50
2023-01-21T23:44:36.543Z,-0.50
2023-01-21T23:47:24.651Z,-0.60
2023-01-21T23:50:14.762Z,-0.60
2023-01-21T23:53:02.346Z,-0.70
2023-01-21T23:55:49.847Z,-0.70
2023-01-21T23:58:37.441Z,-0.80
